Time;durP1;ratioP1;P1;durP2;ratioP2;P2;SDS_P1;SDS_P2;PMS_P1;PMS_P2;Temp;Humidity;BMP_temperature;BMP_pressure;BME280_temperature;BME280_humidity;BME280_pressure;Samples;Min_cycle;Max_cycle;Signal;HPM_P1;HPM_P2
2023/01/16 10:13:02;;;;;;;8.37;7.97;;;6.30;98.40;;;;;;5085020;27;20558;-82
2023/01/16 10:15:39;;;;;;;9.73;9.23;;;7.00;94.80;;;;;;5084813;28;20451;-81
2023/01/16 10:18:21;;;;;;;10.70;9.90;;;7.00;95.30;;;;;;5085455;28;20446;-83
2023/01/16 10:21:03;;;;;;;10.37;9.67;;;7.00;95.00;;;;;;5085734;28;20562;-83
2023/01/16 10:23:40;;;;;;;9.43;9.03;;;7.00;94.80;;;;;;5084888;28;20442;-84
2023/01/16 10:26:09;;;;;;;9.10;8.60;;;7.00;94.10;;;;;;5085892;28;20801;-83
2023/01/16 10:28:53;;;;;;;9.70;9.30;;;7.00;93.30;;;;;;5087193;28;20933;-83
2023/01/16 10:31:24;;;;;;;10.10;9.80;;;7.10;92.90;;;;;;5088602;28;20446;-82
2023/01/16 10:33:56;;;;;;;10.60;9.67;;;7.20;92.20;;;;;;5087444;28;20478;-83
2023/01/16 10:36:26;;;;;;;9.53;9.23;;;7.20;91.60;;;;;;5098812;28;20550;-81
2023/01/16 10:38:56;;;;;;;9.70;9.13;;;7.30;91.30;;;;;;5105283;28;20536;-82
2023/01/16 10:49:56;;;;;;;8.20;7.90;;;7.30;90.30;;;;;;5091635;28;20434;-82
2023/01/16 10:52:24;;;;;;;10.10;9.70;;;7.40;92.50;;;;;;5085605;28;20451;-82
2023/01/16 10:54:51;;;;;;;9.03;8.73;;;7.50;92.30;;;;;;5085195;28;21052;-83
2023/01/16 10:57:20;;;;;;;8.70;8.40;;;7.50;90.70;;;;;;5084994;28;20945;-83
2023/01/16 10:59:52;;;;;;;10.77;9.93;;;7.60;90.70;;;;;;5084546;28;20454;-80
2023/01/16 11:02:25;;;;;;;8.83;8.43;;;7.60;91.50;;;;;;5084272;28;20567;-81
2023/01/16 11:04:53;;;;;;;9.90;9.60;;;7.60;91.40;;;;;;5084168;28;20442;-80
2023/01/16 11:07:23;;;;;;;9.17;8.80;;;7.60;91.60;;;;;;5083611;28;20478;-80
2023/01/16 11:09:50;;;;;;;9.80;9.40;;;7.70;90.20;;;;;;5083483;28;20478;-81
2023/01/16 11:20:49;;;;;;;11.30;11.00;;;7.20;98.60;;;;;;5069734;28;20566;-78
2023/01/16 11:23:19;;;;;;;12.03;11.63;;;7.00;99.90;;;;;;5069661;28;20946;-79
2023/01/16 11:25:47;;;;;;;10.40;10.00;;;7.00;99.90;;;;;;5069721;28;20524;-79
2023/01/16 11:28:19;;;;;;;9.73;9.30;;;7.00;99.90;;;;;;5069792;28;20455;-79
2023/01/16 11:30:49;;;;;;;8.70;8.40;;;7.10;99.90;;;;;;5069679;28;20443;-81
2023/01/16 11:33:18;;;;;;;9.20;8.80;;;7.30;99.90;;;;;;5069813;28;20998;-81
2023/01/16 11:35:51;;;;;;;8.27;7.97;;;7.50;99.90;;;;;;5070055;28;20458;-80
2023/01/16 11:38:19;;;;;;;8.20;7.90;;;7.50;99.90;;;;;;5069581;28;20459;-81
2023/01/16 11:40:48;;;;;;;8.13;7.83;;;7.40;99.90;;;;;;5069357;28;20490;-82
2023/01/16 11:46:11;;;;;;;9.47;8.80;;;7.40;99.90;;;;;;5070445;28;20496;-82
2023/01/16 11:48:40;;;;;;;9.30;9.00;;;7.40;99.90;;;;;;5070402;28;20458;-82
2023/01/16 11:51:13;;;;;;;8.40;8.00;;;7.50;99.90;;;;;;5070080;28;20942;-81
2023/01/16 11:53:40;;;;;;;8.53;8.23;;;7.40;99.90;;;;;;5069654;28;20550;-81
2023/01/16 11:56:24;;;;;;;8.60;8.20;;;7.50;99.90;;;;;;5069342;28;20504;-82
2023/01/16 11:59:07;;;;;;;8.87;8.57;;;7.50;99.90;;;;;;5069259;28;20443;-82
2023/01/16 12:04:30;;;;;;;8.57;8.27;;;7.60;99.90;;;;;;5069079;28;20517;-82
2023/01/16 12:07:06;;;;;;;9.50;8.90;;;7.60;99.90;;;;;;5068479;28;21000;-81
2023/01/16 12:09:43;;;;;;;9.47;9.00;;;7.60;99.90;;;;;;5068962;28;20451;-82
2023/01/16 12:15:08;;;;;;;10.73;10.10;;;7.60;99.90;;;;;;5068613;28;20933;-81
2023/01/16 12:17:59;;;;;;;10.00;9.20;;;7.60;99.90;;;;;;5069053;28;20444;-82
2023/01/16 12:20:34;;;;;;;9.37;9.00;;;7.60;99.90;;;;;;5069053;28;20443;-82
2023/01/16 12:23:30;;;;;;;9.10;8.70;;;7.60;99.90;;;;;;5069057;28;21066;-81
2023/01/16 12:26:08;;;;;;;9.40;9.10;;;7.70;99.90;;;;;;5056325;28;20474;-82
2023/01/16 12:28:41;;;;;;;9.60;9.10;;;7.70;99.90;;;;;;5069936;28;20450;-82
2023/01/16 12:31:34;;;;;;;10.10;9.60;;;7.70;99.90;;;;;;5069914;28;20504;-82
2023/01/16 12:34:20;;;;;;;10.20;9.60;;;7.80;99.90;;;;;;5069189;28;20973;-80
2023/01/16 12:37:01;;;;;;;9.93;9.40;;;7.80;99.90;;;;;;5069441;28;20443;-82
2023/01/16 12:39:41;;;;;;;8.80;8.40;;;7.90;99.90;;;;;;5069299;28;20447;-81
2023/01/16 12:45:18;;;;;;;10.27;9.97;;;8.10;99.90;;;;;;5069557;28;20422;-82
2023/01/16 12:48:00;;;;;;;9.40;8.80;;;8.20;99.90;;;;;;5069146;28;20451;-81
2023/01/16 12:50:43;;;;;;;9.90;9.50;;;8.40;99.90;;;;;;5069318;28;20455;-81
2023/01/16 12:53:44;;;;;;;10.10;9.80;;;8.40;99.90;;;;;;5069456;28;20451;-80
2023/01/16 12:56:32;;;;;;;9.93;9.53;;;8.40;99.90;;;;;;5069240;28;20458;-82
2023/01/16 12:59:04;;;;;;;9.37;8.97;;;8.40;99.90;;;;;;5068823;28;20451;-82
2023/01/16 13:01:37;;;;;;;9.07;8.67;;;8.50;99.90;;;;;;5069338;28;20489;-81
2023/01/16 13:04:13;;;;;;;10.70;10.20;;;8.40;99.90;;;;;;5069042;28;20458;-81
2023/01/16 13:06:46;;;;;;;9.80;9.47;;;8.50;99.90;;;;;;5068884;28;20471;-81
2023/01/16 13:09:19;;;;;;;10.17;9.77;;;8.40;99.90;;;;;;5068601;28;20950;-81
2023/01/16 13:14:44;;;;;;;9.40;8.77;;;8.50;99.90;;;;;;5069024;28;20436;-81
2023/01/16 13:17:15;;;;;;;10.80;10.40;;;8.60;99.90;;;;;;5069199;28;20795;-81
2023/01/16 13:19:43;;;;;;;10.13;9.73;;;8.60;99.90;;;;;;5068418;28;20459;-81
2023/01/16 13:22:22;;;;;;;8.87;8.57;;;8.70;99.90;;;;;;5068594;28;20479;-82
2023/01/16 13:24:54;;;;;;;9.80;9.37;;;8.70;99.90;;;;;;5068722;28;21009;-82
2023/01/16 13:27:26;;;;;;;10.07;9.57;;;8.70;99.90;;;;;;5068722;28;20458;-82
2023/01/16 13:29:57;;;;;;;8.40;8.13;;;8.70;99.90;;;;;;5068486;28;20439;-81
2023/01/16 13:32:28;;;;;;;9.37;9.07;;;8.80;99.90;;;;;;5069003;28;20462;-81
2023/01/16 13:34:58;;;;;;;9.57;9.27;;;8.80;99.90;;;;;;5068767;28;20455;-80
2023/01/16 13:37:49;;;;;;;9.80;9.40;;;8.80;99.90;;;;;;5068069;28;20458;-82
2023/01/16 13:40:34;;;;;;;10.00;9.60;;;9.00;99.90;;;;;;5068357;28;20443;-80
2023/01/16 13:45:50;;;;;;;9.20;8.90;;;9.10;99.90;;;;;;5068124;28;20837;-82
2023/01/16 13:48:21;;;;;;;9.37;9.07;;;9.10;99.90;;;;;;5068168;28;20443;-81
2023/01/16 13:50:55;;;;;;;9.00;8.70;;;9.10;99.90;;;;;;5067986;28;20454;-81
2023/01/16 13:53:24;;;;;;;9.40;9.10;;;9.10;99.90;;;;;;5068421;28;20439;-82
2023/01/16 13:56:00;;;;;;;9.40;9.10;;;9.10;99.90;;;;;;5068339;28;20478;-81
2023/01/16 13:58:27;;;;;;;9.00;8.70;;;9.10;99.90;;;;;;5067618;28;20451;-81
2023/01/16 14:00:59;;;;;;;9.57;9.27;;;9.10;99.90;;;;;;5068328;28;20457;-82
2023/01/16 14:03:27;;;;;;;8.80;8.50;;;9.00;99.90;;;;;;5068293;28;20458;-82
2023/01/16 14:05:55;;;;;;;9.40;9.10;;;9.10;99.90;;;;;;5068299;28;20467;-82
2023/01/16 14:09:08;;;;;;;9.93;9.53;;;9.20;99.90;;;;;;5068101;28;20464;-81
2023/01/16 14:11:44;;;;;;;9.30;9.00;;;9.10;99.50;;;;;;5067680;28;20483;-81
2023/01/16 14:17:07;;;;;;;9.10;8.63;;;9.30;99.60;;;;;;5068134;28;20427;-82
2023/01/16 14:19:37;;;;;;;8.63;8.23;;;9.30;98.90;;;;;;5067920;28;20454;-83
2023/01/16 14:24:50;;;;;;;9.20;8.90;;;9.30;99.10;;;;;;5067834;28;20432;-81
2023/01/16 14:27:19;;;;;;;8.80;8.50;;;9.20;98.70;;;;;;5067596;28;20517;-82
2023/01/16 14:29:49;;;;;;;7.57;7.27;;;9.10;98.80;;;;;;5068036;28;21188;-83
2023/01/16 14:32:19;;;;;;;7.40;7.20;;;9.10;98.80;;;;;;5068247;28;20696;-82
2023/01/16 14:34:51;;;;;;;8.33;8.13;;;9.10;98.90;;;;;;5067849;28;20969;-84
2023/01/16 14:37:22;;;;;;;8.50;8.20;;;8.90;99.30;;;;;;5068008;28;20454;-83
2023/01/16 14:39:52;;;;;;;8.57;8.37;;;8.80;99.60;;;;;;5068047;28;20446;-82
2023/01/16 14:57:03;;;;;;;8.80;8.40;;;8.30;99.90;;;;;;5071434;28;20430;-81
2023/01/16 14:59:33;;;;;;;7.90;7.70;;;8.20;99.90;;;;;;5071522;28;20447;-82
2023/01/16 15:02:23;;;;;;;8.00;7.70;;;8.20;99.90;;;;;;5071269;28;20502;-82
2023/01/16 15:04:55;;;;;;;9.40;9.10;;;8.20;99.90;;;;;;5071229;28;20929;-82
2023/01/16 15:07:29;;;;;;;8.37;8.07;;;8.00;99.90;;;;;;5071710;28;20447;-82
2023/01/16 15:10:01;;;;;;;8.40;8.20;;;7.90;99.90;;;;;;5071540;28;20440;-82
2023/01/16 15:12:39;;;;;;;8.77;8.43;;;7.90;99.90;;;;;;5071221;28;20532;-82
2023/01/16 15:15:19;;;;;;;9.17;8.87;;;7.90;99.90;;;;;;5071094;28;20455;-80
2023/01/16 15:23:23;;;;;;;10.43;9.53;;;7.70;99.90;;;;;;5070826;28;20469;-82
2023/01/16 15:26:17;;;;;;;9.40;9.00;;;7.60;99.90;;;;;;5070908;28;20538;-82
2023/01/16 15:28:58;;;;;;;9.87;9.27;;;7.50;99.90;;;;;;5070781;28;20821;-81
2023/01/16 15:31:28;;;;;;;10.27;9.80;;;7.50;99.90;;;;;;5071599;28;20534;-81
2023/01/16 15:34:00;;;;;;;9.90;9.40;;;7.60;99.90;;;;;;5070916;28;20451;-82
2023/01/16 15:36:33;;;;;;;9.03;8.63;;;7.60;99.90;;;;;;5070422;28;20442;-82
2023/01/16 15:39:01;;;;;;;9.50;9.10;;;7.70;99.90;;;;;;5070496;28;20458;-82
2023/01/16 15:47:32;;;;;;;9.43;9.13;;;7.60;99.90;;;;;;5070461;28;20427;-81
2023/01/16 15:50:08;;;;;;;8.83;8.53;;;7.50;99.90;;;;;;5070321;28;20443;-82
2023/01/16 15:52:39;;;;;;;8.30;8.10;;;7.50;99.90;;;;;;5070523;28;20442;-82
2023/01/16 15:55:17;;;;;;;9.00;8.70;;;7.40;99.90;;;;;;5069915;28;20467;-78
2023/01/16 15:57:46;;;;;;;9.93;9.60;;;7.30;99.90;;;;;;5070307;28;20443;-79
2023/01/16 16:00:28;;;;;;;9.40;9.10;;;7.20;99.90;;;;;;5069683;28;20450;-79
2023/01/16 16:02:59;;;;;;;10.73;10.33;;;7.00;99.90;;;;;;5070552;28;20486;-79
2023/01/16 16:05:28;;;;;;;9.80;9.50;;;6.90;99.90;;;;;;5070376;28;20471;-79
2023/01/16 16:07:55;;;;;;;8.80;8.50;;;6.80;99.90;;;;;;5070689;28;20458;-80
2023/01/16 16:13:08;;;;;;;9.10;8.63;;;6.80;99.90;;;;;;5070429;28;20798;-80
2023/01/16 16:18:23;;;;;;;9.37;9.07;;;6.90;99.90;;;;;;5070029;28;20426;-80
2023/01/16 16:20:53;;;;;;;8.87;8.57;;;6.80;99.90;;;;;;5069880;28;20451;-79
2023/01/16 16:23:22;;;;;;;9.00;8.70;;;6.80;99.90;;;;;;5069596;28;20515;-81
2023/01/16 16:25:52;;;;;;;9.30;9.00;;;6.70;99.90;;;;;;5069534;28;20455;-79
2023/01/16 16:28:21;;;;;;;8.90;8.60;;;6.60;99.90;;;;;;5069642;28;20451;-80
2023/01/16 16:30:56;;;;;;;9.23;9.00;;;6.60;99.90;;;;;;5069426;28;20451;-80
2023/01/16 16:33:24;;;;;;;9.30;9.00;;;6.50;99.90;;;;;;5069589;28;20446;-81
2023/01/16 16:35:53;;;;;;;10.60;10.20;;;6.50;99.90;;;;;;5069012;28;20493;-79
2023/01/16 16:38:22;;;;;;;10.13;9.83;;;6.50;99.90;;;;;;5069739;28;20784;-79
2023/01/16 16:42:25;;;;;;;9.53;9.23;;;6.50;99.90;;;;;;5069560;28;20451;-80
2023/01/16 16:44:24;;;;;;;10.83;10.50;;;6.40;99.90;;;;;;5069250;28;20447;-79
2023/01/16 16:46:57;;;;;;;15.00;14.43;;;6.30;99.90;;;;;;5069460;28;20435;-76
2023/01/16 16:49:30;;;;;;;15.90;15.33;;;6.20;99.90;;;;;;5069486;28;20443;-75
2023/01/16 16:52:39;;;;;;;22.80;21.80;;;6.20;99.90;;;;;;5069240;28;20512;-75
2023/01/16 16:55:28;;;;;;;31.77;30.47;;;6.20;99.90;;;;;;5068947;28;20454;-73
2023/01/16 16:57:56;;;;;;;32.77;31.37;;;6.10;99.90;;;;;;5068996;28;21011;-73
2023/01/16 17:00:22;;;;;;;30.70;29.40;;;6.10;99.90;;;;;;5069180;28;20557;-73
2023/01/16 17:02:54;;;;;;;31.93;30.43;;;6.00;99.90;;;;;;5068634;28;21024;-72
2023/01/16 17:05:21;;;;;;;32.63;30.93;;;6.00;99.90;;;;;;5068473;28;20475;-74
2023/01/16 17:07:49;;;;;;;30.60;29.20;;;6.00;99.90;;;;;;5068761;28;20886;-75
2023/01/16 17:10:17;;;;;;;31.07;29.67;;;5.90;99.90;;;;;;5068200;28;20458;-75
2023/01/16 17:12:44;;;;;;;29.50;28.20;;;5.90;99.90;;;;;;5068619;28;20475;-75
2023/01/16 17:15:13;;;;;;;31.10;29.70;;;5.80;99.90;;;;;;5068972;28;20439;-75
2023/01/16 17:17:41;;;;;;;31.13;29.73;;;5.90;99.90;;;;;;5068991;28;20528;-76
2023/01/16 17:20:19;;;;;;;30.07;28.70;;;5.80;99.90;;;;;;5068664;28;20452;-76
2023/01/16 17:22:47;;;;;;;33.53;32.10;;;5.80;99.90;;;;;;5068329;28;20483;-76
2023/01/16 17:25:21;;;;;;;30.83;29.53;;;5.80;99.90;;;;;;5068215;28;20550;-76
2023/01/16 17:27:48;;;;;;;32.77;31.27;;;5.80;99.90;;;;;;5068408;28;20883;-75
2023/01/16 17:30:16;;;;;;;30.17;28.83;;;5.80;99.90;;;;;;5068272;28;20447;-75
2023/01/16 17:32:43;;;;;;;29.80;28.50;;;5.80;99.90;;;;;;5068733;28;20454;-75
2023/01/16 17:35:20;;;;;;;29.77;28.50;;;5.80;99.90;;;;;;5068396;28;20479;-75
2023/01/16 17:37:47;;;;;;;30.47;29.17;;;5.70;99.90;;;;;;5068368;28;20864;-75
2023/01/16 17:40:14;;;;;;;32.47;30.87;;;5.70;99.90;;;;;;5068146;28;20450;-75
2023/01/16 17:45:55;;;;;;;32.07;30.77;;;5.70;99.90;;;;;;5068180;28;20438;-75
2023/01/16 17:48:23;;;;;;;29.80;28.50;;;5.70;99.90;;;;;;5067999;28;20526;-76
2023/01/16 17:50:52;;;;;;;32.13;30.73;;;5.60;99.90;;;;;;5068318;28;20458;-75
2023/01/16 17:53:21;;;;;;;29.70;28.50;;;5.60;99.90;;;;;;5068148;28;20451;-75
2023/01/16 17:55:52;;;;;;;30.23;28.83;;;5.60;99.90;;;;;;5068362;28;20478;-76
2023/01/16 17:58:24;;;;;;;30.67;29.37;;;5.60;99.90;;;;;;5068178;28;20939;-76
